Time;durP1;ratioP1;P1;durP2;ratioP2;P2;SDS_P1;SDS_P2;PMS_P1;PMS_P2;Temp;Humidity;BMP_temperature;BMP_pressure;BME280_temperature;BME280_humidity;BME280_pressure;Samples;Min_cycle;Max_cycle;Signal;HPM_P1;HPM_P2
2023/01/31 00:00:48;;;;;;;17.40;5.43;;;;;;;;;;5062783;28;20494;-68
2023/01/31 00:03:14;;;;;;;20.23;4.22;;;;;;;;;;5078099;28;20051;-69
2023/01/31 00:05:40;;;;;;;13.80;3.90;;;;;;;;;;5071851;28;20041;-69
2023/01/31 00:08:06;;;;;;;12.00;5.22;;;;;;;;;;5066427;28;20502;-68
2023/01/31 00:10:32;;;;;;;14.27;5.68;;;;;;;;;;5062453;28;20032;-69
2023/01/31 00:12:58;;;;;;;14.93;4.35;;;;;;;;;;5067705;28;20037;-68
2023/01/31 00:15:24;;;;;;;15.55;5.00;;;;;;;;;;5072566;28;20375;-68
2023/01/31 00:17:51;;;;;;;12.15;5.03;;;;;;;;;;5048932;28;20424;-68
2023/01/31 00:20:17;;;;;;;12.63;4.05;;;;;;;;;;5071699;28;20036;-68
2023/01/31 00:22:44;;;;;;;19.30;4.97;;;;;;;;;;5071655;28;20044;-68
2023/01/31 00:25:10;;;;;;;15.50;4.97;;;;;;;;;;5065402;28;20039;-68
2023/01/31 00:27:36;;;;;;;26.35;5.05;;;;;;;;;;5070187;28;20036;-68
2023/01/31 00:30:02;;;;;;;11.00;3.53;;;;;;;;;;5071540;28;20528;-69
2023/01/31 00:32:28;;;;;;;16.42;4.60;;;;;;;;;;5075285;28;20052;-68
2023/01/31 00:34:54;;;;;;;21.38;5.28;;;;;;;;;;5066662;28;20123;-68
2023/01/31 00:37:21;;;;;;;14.32;4.53;;;;;;;;;;5068379;28;20624;-68
2023/01/31 00:39:47;;;;;;;23.33;4.28;;;;;;;;;;5068209;28;20174;-68
2023/01/31 00:42:13;;;;;;;21.52;5.10;;;;;;;;;;5073480;28;20032;-68
2023/01/31 00:44:39;;;;;;;16.73;4.28;;;;;;;;;;5069615;28;20036;-68
2023/01/31 00:47:06;;;;;;;15.30;4.82;;;;;;;;;;5063911;28;20085;-68
2023/01/31 00:49:32;;;;;;;10.07;3.65;;;;;;;;;;5066170;28;20130;-68
2023/01/31 00:51:58;;;;;;;15.18;4.32;;;;;;;;;;5070074;28;20040;-68
2023/01/31 00:54:24;;;;;;;12.07;3.75;;;;;;;;;;5068081;28;20406;-68
2023/01/31 00:56:50;;;;;;;13.98;4.18;;;;;;;;;;5070202;28;20048;-68
2023/01/31 00:59:16;;;;;;;18.35;4.68;;;;;;;;;;5079161;28;20107;-67
2023/01/31 01:01:42;;;;;;;13.90;3.53;;;;;;;;;;5074449;28;20040;-70
2023/01/31 01:04:08;;;;;;;16.02;3.70;;;;;;;;;;5070695;28;20033;-68
2023/01/31 01:06:35;;;;;;;18.45;3.50;;;;;;;;;;5065752;28;20414;-68
2023/01/31 01:09:01;;;;;;;11.65;4.10;;;;;;;;;;5078470;28;20032;-68
2023/01/31 01:11:29;;;;;;;15.73;4.50;;;;;;;;;;5068083;28;20032;-68
2023/01/31 01:13:55;;;;;;;13.45;4.38;;;;;;;;;;5070368;28;20668;-68
2023/01/31 01:16:27;;;;;;;13.52;3.67;;;;;;;;;;5069466;28;20068;-68
2023/01/31 01:18:53;;;;;;;9.05;3.85;;;;;;;;;;5076925;28;20047;-68
2023/01/31 01:21:21;;;;;;;15.88;4.63;;;;;;;;;;5066255;28;20045;-68
2023/01/31 01:23:48;;;;;;;20.92;4.07;;;;;;;;;;5063353;28;20037;-68
2023/01/31 01:26:18;;;;;;;14.10;4.00;;;;;;;;;;5062952;28;20151;-68
2023/01/31 01:28:44;;;;;;;14.88;3.92;;;;;;;;;;5069755;28;20574;-68
2023/01/31 01:31:11;;;;;;;10.95;3.80;;;;;;;;;;5073085;28;20046;-68
2023/01/31 01:33:38;;;;;;;11.65;4.18;;;;;;;;;;5069754;28;20045;-68
2023/01/31 01:36:05;;;;;;;14.00;4.07;;;;;;;;;;5067119;28;20061;-68
2023/01/31 01:38:35;;;;;;;18.55;4.43;;;;;;;;;;5071999;28;20036;-68
2023/01/31 01:41:01;;;;;;;16.90;4.25;;;;;;;;;;5073601;28;20396;-68
2023/01/31 01:43:41;;;;;;;8.98;4.43;;;;;;;;;;5063116;28;20032;-68
2023/01/31 01:46:08;;;;;;;9.88;4.55;;;;;;;;;;5073260;28;20032;-68
2023/01/31 01:48:34;;;;;;;15.00;4.57;;;;;;;;;;5073927;28;20036;-68
2023/01/31 01:51:00;;;;;;;18.65;4.15;;;;;;;;;;5059398;28;20047;-68
2023/01/31 01:53:28;;;;;;;14.60;4.50;;;;;;;;;;5068772;28;20048;-68
2023/01/31 01:55:55;;;;;;;14.13;4.57;;;;;;;;;;5068157;28;20060;-69
2023/01/31 01:58:31;;;;;;;11.88;3.53;;;;;;;;;;5070813;28;20048;-68
2023/01/31 02:00:57;;;;;;;19.40;4.22;;;;;;;;;;5064128;28;20036;-68
2023/01/31 02:03:23;;;;;;;9.73;4.18;;;;;;;;;;5072584;28;20394;-68
2023/01/31 02:05:52;;;;;;;15.63;3.75;;;;;;;;;;5074821;28;20123;-68
2023/01/31 02:08:19;;;;;;;10.07;3.38;;;;;;;;;;5067856;28;20542;-68
2023/01/31 02:10:45;;;;;;;10.55;4.00;;;;;;;;;;5068028;28;20041;-68
2023/01/31 02:13:12;;;;;;;12.25;3.70;;;;;;;;;;5072801;28;20078;-68
2023/01/31 02:15:38;;;;;;;12.43;4.30;;;;;;;;;;5064072;28;20045;-68
2023/01/31 02:18:05;;;;;;;11.40;3.47;;;;;;;;;;5075470;28;20478;-68
2023/01/31 02:20:50;;;;;;;14.27;3.42;;;;;;;;;;5070301;28;20033;-68
2023/01/31 02:23:19;;;;;;;11.68;3.20;;;;;;;;;;5069348;28;20032;-68
2023/01/31 02:25:45;;;;;;;12.13;3.42;;;;;;;;;;5073741;28;20036;-68
2023/01/31 02:28:30;;;;;;;13.27;3.50;;;;;;;;;;5068601;28;20033;-67
2023/01/31 02:31:15;;;;;;;5.45;2.97;;;;;;;;;;5066697;28;20186;-68
2023/01/31 02:33:52;;;;;;;10.27;4.22;;;;;;;;;;5079034;28;20048;-68
2023/01/31 02:36:27;;;;;;;16.60;4.43;;;;;;;;;;5068274;28;20091;-68
2023/01/31 02:39:12;;;;;;;15.05;4.45;;;;;;;;;;5066964;28;20047;-68
2023/01/31 02:41:38;;;;;;;13.65;3.85;;;;;;;;;;5074762;28;20032;-70
2023/01/31 02:46:57;;;;;;;;;;;;;;;;;;5063744;28;20135;-68
2023/01/31 02:49:33;;;;;;;18.40;4.50;;;;;;;;;;5062324;28;20343;-68
2023/01/31 02:52:15;;;;;;;15.60;4.93;;;;;;;;;;5068911;28;20094;-68
2023/01/31 02:57:29;;;;;;;16.60;4.97;;;;;;;;;;5061345;28;20048;-68
2023/01/31 02:59:55;;;;;;;12.43;4.07;;;;;;;;;;5071024;28;20036;-68
2023/01/31 03:02:22;;;;;;;9.18;3.60;;;;;;;;;;5065709;28;20152;-68
2023/01/31 03:04:48;;;;;;;12.40;3.58;;;;;;;;;;5070401;28;20494;-68
2023/01/31 03:07:25;;;;;;;14.25;3.58;;;;;;;;;;5069899;28;20051;-68
2023/01/31 03:09:51;;;;;;;14.57;3.92;;;;;;;;;;5064973;28;20056;-69
2023/01/31 03:12:28;;;;;;;9.63;3.50;;;;;;;;;;5066891;28;20509;-68
2023/01/31 03:15:01;;;;;;;23.05;4.38;;;;;;;;;;5058538;28;20490;-69
2023/01/31 03:17:44;;;;;;;16.33;4.60;;;;;;;;;;5066599;28;20036;-68
2023/01/31 03:20:18;;;;;;;11.75;4.15;;;;;;;;;;5065900;28;20044;-68
2023/01/31 03:22:47;;;;;;;13.75;4.13;;;;;;;;;;5084105;28;20110;-68
2023/01/31 03:25:16;;;;;;;18.17;4.95;;;;;;;;;;5069582;28;20508;-68
2023/01/31 03:27:45;;;;;;;22.25;6.00;;;;;;;;;;5066853;28;20044;-68
2023/01/31 03:30:17;;;;;;;10.73;4.22;;;;;;;;;;5061423;28;20127;-67
2023/01/31 03:32:52;;;;;;;13.90;4.63;;;;;;;;;;5072142;28;20283;-68
2023/01/31 03:35:20;;;;;;;10.10;3.90;;;;;;;;;;5063118;28;20497;-68
2023/01/31 03:37:48;;;;;;;11.20;4.57;;;;;;;;;;5073819;28;20178;-68
2023/01/31 03:40:21;;;;;;;15.40;5.22;;;;;;;;;;5069209;28;20405;-68
2023/01/31 03:42:54;;;;;;;12.60;4.55;;;;;;;;;;5062109;28;20032;-68
2023/01/31 03:45:34;;;;;;;19.85;4.55;;;;;;;;;;5070086;28;20028;-68
2023/01/31 03:48:02;;;;;;;24.30;5.07;;;;;;;;;;5071804;28;20485;-68
2023/01/31 03:50:51;;;;;;;17.65;4.07;;;;;;;;;;5071035;28;20051;-68
2023/01/31 03:53:27;;;;;;;15.55;4.90;;;;;;;;;;5063653;28;20045;-68
2023/01/31 03:55:56;;;;;;;20.60;6.38;;;;;;;;;;5068945;28;20198;-68
2023/01/31 03:58:26;;;;;;;17.58;4.63;;;;;;;;;;5064952;28;20517;-68
2023/01/31 04:00:54;;;;;;;16.73;4.40;;;;;;;;;;5059313;28;20202;-67
2023/01/31 04:03:24;;;;;;;14.38;4.82;;;;;;;;;;5061403;28;20047;-68
2023/01/31 04:05:50;;;;;;;19.95;6.13;;;;;;;;;;5066673;28;20494;-68
2023/01/31 04:08:16;;;;;;;16.92;5.43;;;;;;;;;;5073788;28;20549;-68
2023/01/31 04:10:42;;;;;;;13.75;4.28;;;;;;;;;;5065513;28;20041;-68
2023/01/31 04:13:09;;;;;;;11.65;5.50;;;;;;;;;;5070755;28;20076;-68
2023/01/31 04:15:35;;;;;;;22.25;5.30;;;;;;;;;;5067327;28;20089;-68
2023/01/31 04:18:01;;;;;;;15.68;6.10;;;;;;;;;;5075389;28;20118;-68
2023/01/31 04:20:27;;;;;;;18.67;6.10;;;;;;;;;;5067945;28;20126;-68
2023/01/31 04:22:53;;;;;;;18.67;5.88;;;;;;;;;;5066915;28;20033;-68
2023/01/31 04:25:19;;;;;;;16.48;6.05;;;;;;;;;;5064547;28;20475;-67
2023/01/31 04:27:45;;;;;;;21.17;6.00;;;;;;;;;;5069703;28;20051;-68
2023/01/31 04:30:12;;;;;;;18.48;5.95;;;;;;;;;;5047073;28;20036;-68
2023/01/31 04:32:38;;;;;;;17.30;6.60;;;;;;;;;;5066763;28;20056;-67
2023/01/31 04:35:04;;;;;;;19.48;6.47;;;;;;;;;;5069508;28;20053;-68
2023/01/31 04:37:30;;;;;;;21.85;6.75;;;;;;;;;;5070836;28;20036;-68
2023/01/31 04:39:56;;;;;;;15.85;6.18;;;;;;;;;;5066770;28;20042;-68
2023/01/31 04:42:23;;;;;;;20.40;6.50;;;;;;;;;;5069360;28;20036;-68
2023/01/31 04:44:49;;;;;;;17.40;5.47;;;;;;;;;;5075275;28;20032;-68
2023/01/31 04:47:15;;;;;;;16.65;6.55;;;;;;;;;;5071572;28;20048;-68
2023/01/31 04:49:42;;;;;;;27.50;8.05;;;;;;;;;;5077588;28;20555;-68
2023/01/31 04:52:09;;;;;;;15.90;5.57;;;;;;;;;;5071646;28;20044;-68
2023/01/31 04:54:35;;;;;;;21.33;5.82;;;;;;;;;;5075073;28;20097;-68
2023/01/31 04:57:02;;;;;;;17.80;6.35;;;;;;;;;;5070387;28;20041;-67
2023/01/31 04:59:28;;;;;;;21.58;7.25;;;;;;;;;;5062195;28;20035;-68
2023/01/31 05:01:54;;;;;;;17.42;5.88;;;;;;;;;;5068427;28;20093;-68
2023/01/31 05:04:21;;;;;;;30.38;8.02;;;;;;;;;;5066845;28;20037;-67
2023/01/31 05:06:47;;;;;;;15.68;5.82;;;;;;;;;;5070399;28;20488;-68
2023/01/31 05:09:14;;;;;;;18.92;7.50;;;;;;;;;;5077694;28;20517;-68
2023/01/31 05:11:40;;;;;;;23.98;6.40;;;;;;;;;;5078149;28;20047;-68
2023/01/31 05:14:06;;;;;;;19.17;6.30;;;;;;;;;;5062961;28;20041;-68
2023/01/31 05:16:33;;;;;;;17.40;7.30;;;;;;;;;;5063330;28;20040;-68
2023/01/31 05:18:59;;;;;;;18.13;6.60;;;;;;;;;;5066527;28;20620;-68
2023/01/31 05:21:25;;;;;;;26.42;7.82;;;;;;;;;;5073016;28;20037;-68
2023/01/31 05:23:51;;;;;;;22.23;6.55;;;;;;;;;;5075471;28;20052;-68
2023/01/31 05:26:17;;;;;;;17.13;5.95;;;;;;;;;;5069228;28;20040;-68
2023/01/31 05:28:43;;;;;;;16.02;7.05;;;;;;;;;;5078280;28;20478;-68
2023/01/31 05:31:11;;;;;;;26.58;7.10;;;;;;;;;;5069157;28;20033;-67
2023/01/31 05:33:38;;;;;;;21.15;6.47;;;;;;;;;;5067520;28;20122;-68
2023/01/31 05:36:04;;;;;;;19.00;6.45;;;;;;;;;;5076809;28;20044;-68
2023/01/31 05:38:30;;;;;;;23.98;7.28;;;;;;;;;;5070408;28;20490;-68
2023/01/31 05:40:56;;;;;;;16.33;6.10;;;;;;;;;;5075798;28;20039;-68
2023/01/31 05:43:22;;;;;;;22.83;6.13;;;;;;;;;;5071530;28;20032;-68
2023/01/31 05:45:49;;;;;;;24.60;6.25;;;;;;;;;;5075697;28;20827;-68
2023/01/31 05:48:15;;;;;;;23.00;6.57;;;;;;;;;;5072395;28;20043;-68
2023/01/31 05:50:41;;;;;;;20.90;7.32;;;;;;;;;;5070712;28;20043;-68
2023/01/31 05:53:08;;;;;;;25.63;6.15;;;;;;;;;;5070874;28;20509;-68
2023/01/31 05:55:34;;;;;;;17.63;5.57;;;;;;;;;;5068561;28;20119;-68
2023/01/31 05:58:00;;;;;;;22.77;7.07;;;;;;;;;;5066528;28;20569;-68
2023/01/31 06:00:26;;;;;;;27.58;7.43;;;;;;;;;;5070429;28;20108;-68
2023/01/31 06:02:56;;;;;;;18.77;6.03;;;;;;;;;;5068104;28;20067;-68
2023/01/31 06:05:22;;;;;;;23.08;6.80;;;;;;;;;;5068012;28;20041;-68
2023/01/31 06:07:48;;;;;;;31.20;6.95;;;;;;;;;;5063928;28;20127;-68
2023/01/31 06:10:14;;;;;;;15.32;6.53;;;;;;;;;;5058917;28;20032;-68
2023/01/31 06:12:40;;;;;;;19.30;6.43;;;;;;;;;;5068434;28;20624;-67
2023/01/31 06:15:07;;;;;;;22.23;6.10;;;;;;;;;;5066567;28;20040;-68
2023/01/31 06:17:33;;;;;;;16.25;6.07;;;;;;;;;;5063438;28;20561;-68
2023/01/31 06:19:59;;;;;;;15.30;6.53;;;;;;;;;;5064372;28;20054;-68
2023/01/31 06:22:25;;;;;;;13.10;5.15;;;;;;;;;;5057942;28;20115;-68
2023/01/31 06:24:51;;;;;;;17.00;7.43;;;;;;;;;;5061538;28;20032;-68
2023/01/31 06:27:17;;;;;;;16.88;5.68;;;;;;;;;;5060642;28;20453;-68
2023/01/31 06:29:44;;;;;;;13.68;4.72;;;;;;;;;;5063452;28;20106;-68
2023/01/31 06:32:10;;;;;;;25.67;5.55;;;;;;;;;;5065142;28;20547;-68
2023/01/31 06:34:36;;;;;;;17.38;5.15;;;;;;;;;;5062855;28;20072;-68
2023/01/31 06:37:02;;;;;;;20.05;5.45;;;;;;;;;;5050092;28;20041;-68
2023/01/31 06:39:28;;;;;;;18.23;6.05;;;;;;;;;;5064970;28;20487;-68
2023/01/31 06:41:55;;;;;;;19.17;5.47;;;;;;;;;;5069534;28;20540;-68
2023/01/31 06:44:21;;;;;;;20.65;5.55;;;;;;;;;;5068640;28;21622;-67
2023/01/31 06:46:47;;;;;;;22.88;5.78;;;;;;;;;;5065506;28;20041;-68
2023/01/31 06:49:13;;;;;;;24.88;5.40;;;;;;;;;;5060309;28;20040;-68
2023/01/31 06:51:39;;;;;;;17.45;5.18;;;;;;;;;;5062416;28;20063;-68
2023/01/31 06:54:05;;;;;;;17.00;4.72;;;;;;;;;;5067381;28;20119;-68
2023/01/31 06:56:31;;;;;;;21.67;5.65;;;;;;;;;;5057567;28;20613;-68
2023/01/31 06:58:57;;;;;;;19.45;5.93;;;;;;;;;;5059126;28;20072;-68
2023/01/31 07:01:25;;;;;;;10.70;4.43;;;;;;;;;;5073407;28;20066;-68
2023/01/31 07:03:51;;;;;;;19.05;5.60;;;;;;;;;;5064432;28;20036;-68
2023/01/31 07:06:19;;;;;;;8.15;4.10;;;;;;;;;;5064210;28;20090;-68
2023/01/31 07:08:45;;;;;;;14.32;4.20;;;;;;;;;;5062792;28;20125;-68
2023/01/31 07:11:12;;;;;;;20.05;5.35;;;;;;;;;;5067571;28;20040;-68
2023/01/31 07:13:38;;;;;;;10.95;4.18;;;;;;;;;;5064207;28;20548;-68
2023/01/31 07:16:04;;;;;;;13.23;3.45;;;;;;;;;;5059538;28;20044;-68
2023/01/31 07:18:30;;;;;;;15.27;4.78;;;;;;;;;;5065941;28;20041;-68
2023/01/31 07:20:56;;;;;;;11.48;4.03;;;;;;;;;;5075132;28;20489;-68
2023/01/31 07:23:23;;;;;;;16.65;4.93;;;;;;;;;;5061178;28;20037;-68
2023/01/31 07:25:49;;;;;;;10.85;3.65;;;;;;;;;;5063599;28;20477;-68
2023/01/31 07:28:15;;;;;;;15.00;4.13;;;;;;;;;;5063041;28;20051;-68
2023/01/31 07:30:42;;;;;;;16.52;3.80;;;;;;;;;;5065365;28;20552;-68
2023/01/31 07:33:09;;;;;;;18.95;5.22;;;;;;;;;;5063518;28;20052;-68
2023/01/31 07:35:35;;;;;;;14.05;4.78;;;;;;;;;;5071462;28;20394;-68
2023/01/31 07:38:02;;;;;;;10.55;4.13;;;;;;;;;;5067379;28;20498;-68
2023/01/31 07:40:28;;;;;;;14.10;4.18;;;;;;;;;;5064422;28;20036;-68
2023/01/31 07:42:57;;;;;;;15.82;4.97;;;;;;;;;;5061924;28;20127;-68
2023/01/31 07:45:23;;;;;;;20.95;4.68;;;;;;;;;;5067810;28;20047;-68
2023/01/31 07:47:50;;;;;;;14.68;6.18;;;;;;;;;;5071459;28;20052;-68
2023/01/31 07:50:16;;;;;;;14.63;3.97;;;;;;;;;;5070150;28;20044;-68
2023/01/31 07:52:43;;;;;;;11.73;4.90;;;;;;;;;;5064878;28;20076;-68
2023/01/31 07:55:09;;;;;;;14.95;4.63;;;;;;;;;;5066644;28;20033;-68
2023/01/31 07:57:35;;;;;;;24.42;5.53;;;;;;;;;;5063565;28;20271;-68
2023/01/31 08:00:01;;;;;;;29.83;5.72;;;;;;;;;;5064156;28;20051;-68
2023/01/31 08:05:12;;;;;;;14.82;4.80;;;;;;;;;;5060729;28;20037;-68
2023/01/31 08:07:38;;;;;;;24.83;5.05;;;;;;;;;;5061395;28;20036;-68
2023/01/31 08:10:05;;;;;;;16.45;4.82;;;;;;;;;;5062363;28;20076;-68
2023/01/31 08:12:31;;;;;;;21.40;5.75;;;;;;;;;;5084399;28;20062;-68
2023/01/31 08:14:57;;;;;;;11.95;5.10;;;;;;;;;;5067682;28;20458;-68
2023/01/31 08:17:23;;;;;;;20.60;6.20;;;;;;;;;;5059199;28;20037;-68
2023/01/31 08:19:49;;;;;;;15.05;5.32;;;;;;;;;;5062384;28;20037;-68
2023/01/31 08:22:15;;;;;;;18.25;6.28;;;;;;;;;;5065983;28;20119;-68
2023/01/31 08:24:42;;;;;;;15.52;4.60;;;;;;;;;;5067073;28;20182;-68
2023/01/31 08:27:08;;;;;;;20.30;5.65;;;;;;;;;;5069109;28;20550;-68
2023/01/31 08:29:34;;;;;;;24.33;6.47;;;;;;;;;;5069555;28;20312;-68
2023/01/31 08:32:01;;;;;;;21.63;5.70;;;;;;;;;;5067924;28;20036;-68
2023/01/31 08:34:28;;;;;;;20.65;5.55;;;;;;;;;;5050305;28;20426;-68
2023/01/31 08:36:54;;;;;;;12.27;4.93;;;;;;;;;;5070433;28;20037;-68
2023/01/31 08:39:20;;;;;;;22.35;6.47;;;;;;;;;;5056467;28;20089;-68
2023/01/31 08:41:46;;;;;;;20.25;5.82;;;;;;;;;;5063112;28;20129;-68
2023/01/31 08:44:13;;;;;;;20.20;5.40;;;;;;;;;;5069160;28;20040;-68
2023/01/31 08:46:39;;;;;;;12.43;5.05;;;;;;;;;;5065566;28;20498;-68
2023/01/31 08:49:06;;;;;;;18.50;5.55;;;;;;;;;;5063475;28;20736;-68
2023/01/31 08:51:32;;;;;;;21.83;5.45;;;;;;;;;;5071209;28;20418;-68
2023/01/31 08:53:59;;;;;;;23.48;5.65;;;;;;;;;;5071542;28;20126;-68
2023/01/31 08:56:26;;;;;;;18.77;5.07;;;;;;;;;;5064421;28;20044;-68
2023/01/31 08:58:53;;;;;;;17.83;6.10;;;;;;;;;;5064933;28;20063;-68
2023/01/31 09:01:20;;;;;;;17.83;6.35;;;;;;;;;;5080529;28;20043;-68
2023/01/31 09:03:46;;;;;;;17.60;5.93;;;;;;;;;;5059183;28;20037;-68
2023/01/31 09:06:17;;;;;;;14.75;5.60;;;;;;;;;;5062147;28;20076;-68
2023/01/31 09:08:43;;;;;;;13.27;5.35;;;;;;;;;;5070821;28;20264;-68
2023/01/31 09:11:10;;;;;;;25.02;5.30;;;;;;;;;;5073233;28;20546;-68
2023/01/31 09:13:36;;;;;;;18.67;5.38;;;;;;;;;;5069438;28;20040;-68
2023/01/31 09:16:04;;;;;;;16.75;7.32;;;;;;;;;;5068590;28;20260;-69
2023/01/31 09:18:30;;;;;;;15.73;5.82;;;;;;;;;;5067058;28;20490;-68
2023/01/31 09:20:56;;;;;;;15.02;5.47;;;;;;;;;;5067262;28;20138;-68
2023/01/31 09:23:22;;;;;;;14.25;5.75;;;;;;;;;;5060542;28;20855;-69
2023/01/31 09:25:53;;;;;;;18.00;5.72;;;;;;;;;;5065958;28;20095;-68
2023/01/31 09:28:19;;;;;;;14.88;5.53;;;;;;;;;;5059843;28;20090;-68
2023/01/31 09:30:45;;;;;;;22.48;6.75;;;;;;;;;;5070655;28;20039;-68
2023/01/31 09:33:11;;;;;;;24.08;5.80;;;;;;;;;;5066768;28;20058;-68
2023/01/31 09:35:37;;;;;;;22.67;6.13;;;;;;;;;;5072447;28;20056;-68
2023/01/31 09:38:03;;;;;;;24.65;6.60;;;;;;;;;;5075002;28;20041;-68
2023/01/31 09:40:32;;;;;;;14.77;5.45;;;;;;;;;;5071232;28;20429;-68
2023/01/31 09:43:01;;;;;;;17.63;6.32;;;;;;;;;;5062324;28;20072;-68
2023/01/31 09:45:27;;;;;;;12.57;4.70;;;;;;;;;;5069394;28;20033;-68
2023/01/31 09:47:55;;;;;;;26.73;5.55;;;;;;;;;;5074396;28;20071;-69
2023/01/31 09:50:34;;;;;;;12.82;5.57;;;;;;;;;;5075298;28;20075;-68
2023/01/31 09:53:00;;;;;;;16.42;5.65;;;;;;;;;;5062893;28;20040;-68
2023/01/31 09:55:53;;;;;;;17.80;6.03;;;;;;;;;;5069242;28;20534;-68
2023/01/31 09:58:39;;;;;;;19.00;7.22;;;;;;;;;;5061747;28;20040;-69
2023/01/31 10:01:14;;;;;;;16.00;5.30;;;;;;;;;;5065221;28;20041;-70
2023/01/31 10:03:46;;;;;;;20.75;6.15;;;;;;;;;;5068068;28;20044;-68
2023/01/31 10:06:19;;;;;;;17.52;5.07;;;;;;;;;;5065500;28;20513;-68
2023/01/31 10:08:46;;;;;;;22.42;6.38;;;;;;;;;;5065614;28;20045;-68
2023/01/31 10:11:38;;;;;;;21.23;5.45;;;;;;;;;;5071777;28;20028;-68
2023/01/31 10:14:10;;;;;;;21.52;5.95;;;;;;;;;;5066041;28;20044;-68
2023/01/31 10:16:40;;;;;;;17.67;5.55;;;;;;;;;;5068890;28;20101;-68
2023/01/31 10:19:12;;;;;;;24.92;5.95;;;;;;;;;;5066572;28;20040;-67
2023/01/31 10:21:48;;;;;;;19.70;5.40;;;;;;;;;;5068620;28;20110;-68
2023/01/31 10:24:24;;;;;;;25.48;7.07;;;;;;;;;;5069638;28;20028;-69
2023/01/31 10:26:55;;;;;;;13.13;5.18;;;7.10;99.90;;;;;;5068489;28;20032;-68
2023/01/31 10:29:28;;;;;;;28.40;6.15;;;;;;;;;;5065237;28;20123;-69
2023/01/31 10:31:57;;;;;;;34.53;6.80;;;;;;;;;;5062558;28;21219;-69
2023/01/31 10:34:23;;;;;;;20.67;6.70;;;;;;;;;;5061854;28;20052;-68
2023/01/31 10:36:58;;;;;;;16.27;5.15;;;;;;;;;;5064436;28;20024;-69
2023/01/31 10:39:25;;;;;;;24.55;6.00;;;;;;;;;;5058469;28;20167;-69
2023/01/31 10:42:02;;;;;;;12.88;5.28;;;;;;;;;;5066584;28;20051;-69
2023/01/31 10:44:39;;;;;;;28.67;5.40;;;;;;;;;;5062101;28;20041;-68
2023/01/31 10:47:11;;;;;;;12.40;4.82;;;;;;;;;;5059679;28;20044;-69
2023/01/31 10:49:37;;;;;;;15.02;6.25;;;;;;;;;;5070327;28;20494;-69
2023/01/31 10:52:12;;;;;;;22.92;5.40;;;;;;;;;;5069329;28;20037;-69
2023/01/31 10:54:46;;;;;;;20.95;6.03;;;;;;;;;;5071519;28;20095;-69
2023/01/31 10:57:13;;;;;;;16.92;6.38;;;;;;;;;;5072079;28;20441;-69
2023/01/31 10:59:42;;;;;;;20.17;6.00;;;;;;;;;;5070166;28;20404;-69
2023/01/31 11:02:19;;;;;;;16.50;5.63;;;;;;;;;;5065610;28;20082;-68
2023/01/31 11:04:46;;;;;;;22.27;6.25;;;;;;;;;;5059265;28;20040;-69
2023/01/31 11:07:12;;;;;;;16.90;5.25;;;;;;;;;;5061329;28;20401;-69
2023/01/31 11:09:43;;;;;;;14.00;5.10;;;;;;;;;;5060062;28;20483;-69
2023/01/31 11:12:09;;;;;;;14.10;5.10;;;;;;;;;;5068837;28;20041;-69
2023/01/31 11:14:35;;;;;;;22.23;6.07;;;6.70;99.90;;;;;;5070122;28;20044;-69
2023/01/31 11:17:22;;;;;;;20.58;5.63;;;7.00;99.90;;;;;;5062612;28;20492;-69
2023/01/31 11:19:50;;;;;;;22.23;5.90;;;;;;;;;;5061609;28;20120;-69
2023/01/31 11:22:28;;;;;;;15.55;5.43;;;;;;;;;;5064124;28;20064;-68
2023/01/31 11:24:55;;;;;;;16.50;5.85;;;;;;;;;;5060955;28;20394;-69
2023/01/31 11:27:24;;;;;;;19.63;5.93;;;;;;;;;;5073268;28;20544;-68
2023/01/31 11:29:53;;;;;;;17.90;4.88;;;;;;;;;;5064227;28;20541;-68
2023/01/31 11:32:22;;;;;;;26.90;6.13;;;6.90;99.90;;;;;;5059053;28;20052;-69
2023/01/31 11:35:24;;;;;;;20.92;6.65;;;;;;;;;;5066374;28;20596;-68
2023/01/31 11:37:58;;;;;;;18.33;5.55;;;;;;;;;;5041539;28;20415;-68
2023/01/31 11:40:28;;;;;;;16.63;5.95;;;;;;;;;;5065319;28;20045;-68
2023/01/31 11:42:58;;;;;;;15.60;5.45;;;;;;;;;;5060437;28;20037;-69
2023/01/31 11:45:26;;;;;;;15.27;5.43;;;;;;;;;;5074168;28;20044;-68
2023/01/31 11:47:54;;;;;;;21.88;6.28;;;;;;;;;;5062263;28;20044;-69
2023/01/31 11:50:31;;;;;;;22.55;5.53;;;;;;;;;;5071969;28;20036;-68
2023/01/31 11:52:58;;;;;;;17.40;5.53;;;;;;;;;;5062670;28;20040;-69
2023/01/31 11:55:25;;;;;;;24.30;6.10;;;;;;;;;;5064814;28;20582;-69
2023/01/31 11:57:56;;;;;;;15.25;6.38;;;;;;;;;;5062563;28;20101;-69
2023/01/31 12:00:27;;;;;;;16.33;4.88;;;;;;;;;;5063993;28;20064;-68
2023/01/31 12:02:59;;;;;;;19.17;5.80;;;;;;;;;;5059919;28;20543;-69
2023/01/31 12:05:31;;;;;;;22.95;5.15;;;;;;;;;;5068193;28;20037;-68
2023/01/31 12:07:57;;;;;;;18.35;5.05;;;;;;;;;;5063688;28;20043;-69
2023/01/31 12:10:26;;;;;;;13.93;4.78;;;;;;;;;;5064326;28;20044;-69
2023/01/31 12:12:51;;;;;;;12.00;4.75;;;7.10;99.90;;;;;;5067443;28;20052;-69
2023/01/31 12:15:17;;;;;;;14.13;4.40;;;7.60;99.90;;;;;;5064826;28;20036;-69
2023/01/31 12:17:48;;;;;;;17.88;6.25;;;7.60;99.90;;;;;;5070467;28;20043;-69
2023/01/31 12:20:44;;;;;;;16.45;5.70;;;7.70;99.90;;;;;;5063213;28;20363;-69
2023/01/31 12:23:24;;;;;;;18.75;5.35;;;7.70;99.90;;;;;;5066019;28;20033;-69
2023/01/31 12:26:16;;;;;;;28.30;4.57;;;7.80;99.90;;;;;;5061775;28;20512;-69
2023/01/31 12:29:01;;;;;;;15.57;6.03;;;7.90;99.90;;;;;;5069513;28;20067;-69
2023/01/31 12:31:48;;;;;;;16.05;5.13;;;;;;;;;;5076910;28;20064;-69
2023/01/31 12:34:17;;;;;;;8.48;3.83;;;;;;;;;;5065607;28;20045;-69
2023/01/31 12:36:54;;;;;;;15.40;5.45;;;;;;;;;;5063860;28;20040;-69
2023/01/31 12:39:33;;;;;;;8.77;4.22;;;;;;;;;;5060120;28;20041;-69
2023/01/31 12:42:23;;;;;;;17.23;5.70;;;;;;;;;;5058459;28;20086;-69
2023/01/31 12:44:51;;;;;;;22.05;5.20;;;;;;;;;;5070411;28;20036;-69
2023/01/31 12:47:29;;;;;;;13.45;4.72;;;;;;;;;;5066815;28;20036;-69
2023/01/31 12:50:09;;;;;;;7.60;3.88;;;;;;;;;;5072259;28;20608;-68
2023/01/31 12:52:54;;;;;;;14.43;4.85;;;;;;;;;;5064264;28;20458;-69
2023/01/31 12:55:29;;;;;;;15.77;4.15;;;;;;;;;;5060721;28;20623;-69
2023/01/31 12:57:56;;;;;;;10.70;4.60;;;;;;;;;;5069545;28;20113;-68
2023/01/31 13:00:34;;;;;;;13.10;4.30;;;;;;;;;;5066999;28;20047;-69
2023/01/31 13:03:06;;;;;;;17.80;5.50;;;;;;;;;;5072765;28;20044;-68
2023/01/31 13:05:32;;;;;;;25.38;5.03;;;;;;;;;;5056018;28;20070;-69
2023/01/31 13:08:05;;;;;;;15.43;4.65;;;;;;;;;;5076270;28;20278;-68
2023/01/31 13:11:01;;;;;;;13.88;4.25;;;;;;;;;;5066290;28;20300;-69
2023/01/31 13:13:27;;;;;;;13.25;4.13;;;;;;;;;;5063846;28;20068;-69
2023/01/31 13:15:56;;;;;;;16.45;4.32;;;;;;;;;;5074388;28;20301;-69
2023/01/31 13:18:23;;;;;;;14.30;4.90;;;;;;;;;;5062656;28;20067;-69
2023/01/31 13:21:18;;;;;;;13.80;5.18;;;;;;;;;;5067883;28;20075;-69
2023/01/31 13:23:47;;;;;;;14.23;4.40;;;;;;;;;;5059742;28;20052;-69
2023/01/31 13:26:17;;;;;;;14.45;4.90;;;;;;;;;;5059653;28;20076;-69
2023/01/31 13:29:02;;;;;;;20.05;5.88;;;;;;;;;;5068192;28;20081;-69
2023/01/31 13:31:35;;;;;;;15.00;4.30;;;;;;;;;;5062800;28;20275;-69
2023/01/31 13:34:25;;;;;;;17.08;4.85;;;;;;;;;;5072835;28;20052;-69
2023/01/31 13:36:57;;;;;;;18.30;4.90;;;;;;;;;;5057171;28;20086;-69
2023/01/31 13:39:26;;;;;;;16.42;4.75;;;;;;;;;;5066231;28;20045;-69
2023/01/31 13:41:52;;;;;;;16.48;4.70;;;;;;;;;;5064808;28;20056;-69
2023/01/31 13:44:19;;;;;;;14.25;5.03;;;;;;;;;;5071435;28;20412;-70
2023/01/31 13:47:01;;;;;;;14.30;4.97;;;;;;;;;;5071248;28;20051;-69
2023/01/31 13:49:29;;;;;;;16.25;4.75;;;;;;;;;;5071202;28;20063;-69
2023/01/31 13:51:58;;;;;;;21.70;5.20;;;8.00;99.90;;;;;;5071102;28;20414;-69
2023/01/31 13:54:44;;;;;;;13.73;5.60;;;8.40;99.90;;;;;;5063120;28;20039;-69
2023/01/31 13:57:45;;;;;;;22.85;5.88;;;8.30;99.90;;;;;;5079161;28;20593;-69
2023/01/31 14:00:36;;;;;;;20.95;5.25;;;8.30;99.90;;;;;;5073247;28;20088;-69
2023/01/31 14:03:07;;;;;;;13.63;4.85;;;;;;;;;;5064177;28;20040;-69
2023/01/31 14:05:48;;;;;;;13.25;6.25;;;;;;;;;;5065369;28;20043;-69
2023/01/31 14:08:27;;;;;;;22.00;6.00;;;;;;;;;;5057847;28;20103;-69
2023/01/31 14:10:54;;;;;;;23.83;5.10;;;;;;;;;;5059602;28;20040;-68
2023/01/31 14:13:26;;;;;;;16.50;6.10;;;;;;;;;;5068029;28;20058;-69
2023/01/31 14:15:53;;;;;;;20.37;6.30;;;;;;;;;;5069314;28;20413;-69
2023/01/31 14:18:37;;;;;;;19.73;6.55;;;;;;;;;;5064035;28;20657;-69
2023/01/31 14:21:22;;;;;;;16.52;4.97;;;;;;;;;;5072249;28;20046;-69
2023/01/31 14:23:48;;;;;;;19.73;6.00;;;;;;;;;;5066959;28;20042;-69
2023/01/31 14:26:46;;;;;;;23.35;5.50;;;;;;;;;;5065534;28;20514;-69
2023/01/31 14:29:15;;;;;;;20.75;5.88;;;;;;;;;;5040477;28;22101;-69
2023/01/31 14:31:45;;;;;;;17.02;5.25;;;;;;;;;;5078528;28;20048;-69
2023/01/31 14:34:31;;;;;;;16.90;5.78;;;;;;;;;;5063403;28;20097;-69
2023/01/31 14:37:00;;;;;;;21.45;6.07;;;;;;;;;;5069095;28;20448;-69
2023/01/31 14:39:42;;;;;;;20.92;6.85;;;;;;;;;;5066611;28;20028;-69
2023/01/31 14:42:12;;;;;;;33.55;6.85;;;;;;;;;;5063667;28;20048;-69
2023/01/31 14:44:46;;;;;;;19.55;6.45;;;;;;;;;;5064603;28;20124;-69
2023/01/31 14:47:31;;;;;;;21.45;6.40;;;;;;;;;;5063361;28;20043;-69
2023/01/31 14:50:16;;;;;;;23.58;7.43;;;;;;;;;;5066200;28;20570;-69